Time;durP1;ratioP1;P1;durP2;ratioP2;P2;SDS_P1;SDS_P2;PMS_P1;PMS_P2;Temp;Humidity;BMP_temperature;BMP_pressure;BME280_temperature;BME280_humidity;BME280_pressure;Samples;Min_cycle;Max_cycle;Signal;HPM_P1;HPM_P2
2021/04/23 00:01:17;;;;;;;8.57;3.60;;;;;;;;;;5019195;28;20503;-93
2021/04/23 00:03:54;;;;;;;12.02;4.07;;;;;;;;;;5018963;28;20099;-94
2021/04/23 00:06:47;;;;;;;9.10;3.67;;;;;;;;;;5035224;28;20484;-93
2021/04/23 00:09:17;;;;;;;15.70;4.25;;;;;;;;;;5034766;28;20044;-94
2021/04/23 00:11:49;;;;;;;7.43;3.35;;;;;;;;;;5035022;28;20510;-94
2021/04/23 00:14:18;;;;;;;12.57;4.80;;;;;;;;;;5018448;28;20037;-95
2021/04/23 00:16:43;;;;;;;13.48;4.43;;;;;;;;;;5034420;28;20184;-93
2021/04/23 00:19:12;;;;;;;11.25;4.30;;;;;;;;;;5034957;28;20539;-93
2021/04/23 00:21:38;;;;;;;10.65;3.80;;;;;;;;;;5018028;28;20049;-93
2021/04/23 00:24:04;;;;;;;7.47;3.85;;;;;;;;;;5017967;28;20045;-93
2021/04/23 00:26:30;;;;;;;9.75;4.05;;;;;;;;;;5034293;28;20037;-92
2021/04/23 00:28:55;;;;;;;12.23;4.03;;;;;;;;;;5018245;28;20439;-93
2021/04/23 00:31:21;;;;;;;9.05;3.72;;;;;;;;;;5034809;28;20083;-92
2021/04/23 00:33:46;;;;;;;9.63;3.90;;;;;;;;;;5034677;28;20064;-93
2021/04/23 00:36:12;;;;;;;13.52;3.80;;;;;;;;;;5034393;28;20120;-92
2021/04/23 00:38:39;;;;;;;11.02;3.85;;;;;;;;;;5034025;28;20053;-93
2021/04/23 00:41:08;;;;;;;11.55;4.07;;;;;;;;;;5014426;28;20034;-93
2021/04/23 00:43:36;;;;;;;13.57;4.18;;;;;;;;;;5031128;28;20034;-94
2021/04/23 00:46:02;;;;;;;13.02;5.28;;;;;;;;;;5014500;28;20034;-93
2021/04/23 00:48:43;;;;;;;14.05;4.28;;;;;;;;;;5014373;28;20038;-93
2021/04/23 00:51:12;;;;;;;10.80;4.07;;;;;;;;;;5014667;28;20034;-93
2021/04/23 00:53:41;;;;;;;18.23;4.72;;;;;;;;;;5014706;28;20433;-93
2021/04/23 00:56:09;;;;;;;10.60;3.78;;;;;;;;;;5014452;28;20076;-94
2021/04/23 00:58:36;;;;;;;14.30;3.53;;;;;;;;;;5030718;28;20061;-93
2021/04/23 01:01:07;;;;;;;10.60;5.05;;;;;;;;;;5014222;28;20448;-93
2021/04/23 01:03:34;;;;;;;10.82;4.20;;;;;;;;;;5030203;28;20037;-93
2021/04/23 01:06:04;;;;;;;10.40;4.63;;;;;;;;;;5030570;28;20042;-92
2021/04/23 01:08:29;;;;;;;11.00;4.35;;;;;;;;;;5014293;28;20042;-93
2021/04/23 01:10:57;;;;;;;9.55;4.75;;;;;;;;;;5013940;28;20485;-93
2021/04/23 01:13:28;;;;;;;11.95;4.47;;;;;;;;;;5033752;28;20571;-93
2021/04/23 01:15:53;;;;;;;12.93;4.78;;;;;;;;;;5017409;28;20473;-93
2021/04/23 01:18:18;;;;;;;11.90;4.43;;;;;;;;;;5033816;28;20049;-93
2021/04/23 01:20:44;;;;;;;21.38;5.30;;;;;;;;;;5017159;28;20030;-94
2021/04/23 01:23:09;;;;;;;15.73;4.93;;;;;;;;;;5033642;28;20029;-94
2021/04/23 01:25:34;;;;;;;8.32;4.28;;;;;;;;;;5034831;28;20049;-93
2021/04/23 01:28:00;;;;;;;10.52;4.15;;;;;;;;;;5032576;28;20092;-92
2021/04/23 01:30:25;;;;;;;10.35;4.57;;;;;;;;;;5017203;28;20100;-93
2021/04/23 01:32:51;;;;;;;8.20;3.60;;;;;;;;;;5034856;28;20029;-92
2021/04/23 01:35:21;;;;;;;8.13;3.95;;;;;;;;;;5033625;28;20029;-93
2021/04/23 01:37:47;;;;;;;10.30;4.00;;;;;;;;;;5016781;28;20030;-92
2021/04/23 01:40:14;;;;;;;9.55;4.43;;;;;;;;;;5033456;28;20075;-92
2021/04/23 01:42:39;;;;;;;11.10;3.75;;;;;;;;;;5033316;28;20048;-93
2021/04/23 01:45:09;;;;;;;8.25;4.00;;;;;;;;;;5016661;28;20030;-92
2021/04/23 01:47:34;;;;;;;8.70;4.10;;;;;;;;;;5016610;28;20034;-93
2021/04/23 01:50:00;;;;;;;9.20;3.80;;;;;;;;;;5017060;28;20045;-94
2021/04/23 01:52:26;;;;;;;10.38;4.28;;;;;;;;;;5033362;28;20040;-93
2021/04/23 01:54:51;;;;;;;10.25;4.15;;;;;;;;;;5033370;28;20083;-93
2021/04/23 01:57:18;;;;;;;10.95;3.72;;;;;;;;;;5033103;28;20036;-92
2021/04/23 01:59:44;;;;;;;7.30;3.42;;;;;;;;;;5016542;28;20484;-92
2021/04/23 02:02:11;;;;;;;12.35;4.00;;;;;;;;;;5033020;28;20037;-93
2021/04/23 02:04:36;;;;;;;11.55;4.50;;;;;;;;;;5016610;28;20433;-93
2021/04/23 02:07:05;;;;;;;12.15;3.90;;;;;;;;;;5032625;28;20063;-93
2021/04/23 02:09:31;;;;;;;9.68;3.58;;;;;;;;;;5026011;28;20078;-94
2021/04/23 02:11:56;;;;;;;10.02;3.90;;;;;;;;;;5013425;28;20033;-93
2021/04/23 02:14:23;;;;;;;8.95;3.95;;;;;;;;;;5029688;28;20045;-94
2021/04/23 02:16:49;;;;;;;12.07;4.18;;;;;;;;;;5013248;28;20038;-93
2021/04/23 02:19:15;;;;;;;12.70;3.90;;;;;;;;;;5013239;28;20401;-93
2021/04/23 02:21:43;;;;;;;9.95;4.22;;;;;;;;;;5013488;28;20114;-92
2021/04/23 02:24:09;;;;;;;8.07;4.35;;;;;;;;;;5029113;28;20052;-93
2021/04/23 02:26:36;;;;;;;10.80;5.85;;;;;;;;;;5013049;28;20038;-93
2021/04/23 02:29:04;;;;;;;13.50;4.57;;;;;;;;;;4996391;28;20044;-93
2021/04/23 02:31:30;;;;;;;10.35;4.28;;;;;;;;;;5029397;28;20489;-93
2021/04/23 02:33:59;;;;;;;9.93;4.32;;;;;;;;;;4996582;28;20057;-93
2021/04/23 02:36:26;;;;;;;7.22;3.63;;;;;;;;;;5029313;28;20034;-92
2021/04/23 02:38:52;;;;;;;7.70;3.53;;;;;;;;;;4998571;28;20070;-93
2021/04/23 02:41:18;;;;;;;11.25;4.25;;;;;;;;;;5015700;28;20029;-93
2021/04/23 02:43:50;;;;;;;16.88;5.05;;;;;;;;;;5015813;28;20511;-92
2021/04/23 02:46:16;;;;;;;7.88;4.43;;;;;;;;;;5032459;28;20044;-93
2021/04/23 02:48:43;;;;;;;7.90;3.92;;;;;;;;;;5015836;28;20037;-93
2021/04/23 02:51:13;;;;;;;11.25;4.50;;;;;;;;;;5032633;28;20037;-93
2021/04/23 02:53:39;;;;;;;10.73;4.57;;;;;;;;;;5016112;28;20030;-93
2021/04/23 02:56:06;;;;;;;10.57;4.18;;;;;;;;;;5032636;28;20065;-93
2021/04/23 02:58:32;;;;;;;13.07;4.93;;;;;;;;;;5015998;28;20049;-93
2021/04/23 03:01:03;;;;;;;12.60;5.40;;;;;;;;;;5015847;28;20032;-93
2021/04/23 03:03:28;;;;;;;13.88;4.50;;;;;;;;;;5049501;28;20095;-93
2021/04/23 03:05:55;;;;;;;8.43;4.72;;;;;;;;;;5032344;28;20037;-93
2021/04/23 03:08:21;;;;;;;9.63;4.55;;;;;;;;;;5032070;28;20034;-93
2021/04/23 03:10:55;;;;;;;12.68;4.35;;;;;;;;;;5032284;28;20030;-93
2021/04/23 03:13:24;;;;;;;9.85;4.88;;;;;;;;;;5032188;28;20091;-93
2021/04/23 03:15:52;;;;;;;9.75;4.22;;;;;;;;;;5032331;28;20503;-92
2021/04/23 03:18:21;;;;;;;10.73;5.03;;;;;;;;;;5015580;28;20120;-93
2021/04/23 03:20:49;;;;;;;13.65;4.88;;;;;;;;;;5015634;28;20029;-92
2021/04/23 03:23:14;;;;;;;11.32;5.18;;;;;;;;;;5031619;28;20033;-93
2021/04/23 03:25:40;;;;;;;9.32;5.07;;;;;;;;;;5015744;28;20129;-93
2021/04/23 03:28:06;;;;;;;8.95;4.53;;;;;;;;;;5031776;28;20195;-93
2021/04/23 03:30:35;;;;;;;12.65;6.07;;;;;;;;;;5016111;28;20033;-94
2021/04/23 03:33:02;;;;;;;13.75;5.30;;;;;;;;;;5033462;28;20037;-92
2021/04/23 03:35:29;;;;;;;17.42;5.90;;;;;;;;;;5032228;28;20120;-93
2021/04/23 03:37:56;;;;;;;25.50;5.85;;;;;;;;;;5032079;28;20565;-93
2021/04/23 03:40:24;;;;;;;21.13;6.40;;;;;;;;;;5014983;28;20041;-92
2021/04/23 03:42:50;;;;;;;19.42;5.97;;;;;;;;;;5031879;28;20111;-94
2021/04/23 03:45:18;;;;;;;15.48;5.82;;;;;;;;;;5032188;28;20041;-93
2021/04/23 03:47:45;;;;;;;18.35;6.05;;;;;;;;;;5015650;28;20381;-93
2021/04/23 03:50:12;;;;;;;18.10;6.32;;;;;;;;;;5031804;28;20068;-94
2021/04/23 03:52:38;;;;;;;12.70;5.55;;;;;;;;;;5018655;28;20030;-93
2021/04/23 03:55:08;;;;;;;13.38;6.28;;;;;;;;;;5019208;28;20399;-93
2021/04/23 03:57:35;;;;;;;9.20;4.65;;;;;;;;;;5052630;28;20044;-93
2021/04/23 04:00:01;;;;;;;9.30;4.70;;;;;;;;;;5035315;28;20045;-93
2021/04/23 04:02:26;;;;;;;17.33;6.18;;;;;;;;;;5035276;28;20034;-93
2021/04/23 04:04:52;;;;;;;11.75;4.72;;;;;;;;;;5035463;28;20102;-93
2021/04/23 04:07:17;;;;;;;15.90;5.95;;;;;;;;;;5018686;28;20041;-92
2021/04/23 04:09:42;;;;;;;15.60;6.45;;;;;;;;;;5035621;28;20034;-92
2021/04/23 04:12:08;;;;;;;12.07;5.65;;;;;;;;;;5035076;28;20079;-92
2021/04/23 04:14:33;;;;;;;12.57;6.05;;;;;;;;;;5014835;28;20071;-93
2021/04/23 04:16:59;;;;;;;21.13;7.43;;;;;;;;;;4998932;28;20038;-93
2021/04/23 04:19:24;;;;;;;12.80;6.60;;;;;;;;;;4999133;28;20461;-92
2021/04/23 04:21:49;;;;;;;28.38;7.40;;;;;;;;;;4998160;28;20473;-94
2021/04/23 04:24:14;;;;;;;28.98;7.90;;;;;;;;;;4998364;28;20042;-94
2021/04/23 04:26:40;;;;;;;22.73;8.80;;;;;;;;;;4998704;28;20182;-93
2021/04/23 04:29:05;;;;;;;50.85;16.42;;;;;;;;;;4998183;28;20056;-94
2021/04/23 04:31:31;;;;;;;29.85;10.40;;;;;;;;;;5014926;28;20535;-93
2021/04/23 04:33:57;;;;;;;26.20;10.15;;;;;;;;;;5014945;28;20042;-92
2021/04/23 04:36:22;;;;;;;22.58;7.65;;;;;;;;;;4998430;28;20068;-92
2021/04/23 04:38:47;;;;;;;22.48;7.85;;;;;;;;;;5015007;28;20472;-93
2021/04/23 04:41:13;;;;;;;22.33;7.22;;;;;;;;;;5014556;28;20038;-93
2021/04/23 04:43:39;;;;;;;17.55;8.43;;;;;;;;;;5015479;28;20038;-93
2021/04/23 04:46:05;;;;;;;15.32;7.75;;;;;;;;;;5014707;28;20037;-92
2021/04/23 04:48:30;;;;;;;18.38;7.43;;;;;;;;;;5030743;28;20382;-92
2021/04/23 04:50:58;;;;;;;23.27;7.70;;;;;;;;;;5014663;28;20038;-93
2021/04/23 04:53:24;;;;;;;19.70;8.50;;;;;;;;;;5031579;28;20029;-95
2021/04/23 04:55:52;;;;;;;23.27;7.60;;;;;;;;;;4998160;28;20080;-94
2021/04/23 04:58:22;;;;;;;22.67;8.48;;;;;;;;;;5014631;28;20036;-94
2021/04/23 05:00:47;;;;;;;20.17;8.52;;;;;;;;;;5030776;28;20033;-94
2021/04/23 05:03:12;;;;;;;19.48;8.45;;;;;;;;;;5014352;28;20030;-94
2021/04/23 05:05:39;;;;;;;13.95;7.97;;;;;;;;;;5017606;28;20546;-94
2021/04/23 05:08:05;;;;;;;21.42;8.20;;;;;;;;;;5017765;28;20026;-94
2021/04/23 05:10:33;;;;;;;23.92;8.57;;;;;;;;;;5025651;28;20034;-94
2021/04/23 05:12:59;;;;;;;31.08;9.95;;;;;;;;;;4997969;28;20038;-94
2021/04/23 05:15:25;;;;;;;20.90;8.25;;;;;;;;;;5030606;28;20540;-94
2021/04/23 05:17:50;;;;;;;24.35;8.32;;;;;;;;;;5014103;28;20038;-94
2021/04/23 05:20:17;;;;;;;24.50;8.77;;;;;;;;;;5030910;28;20073;-94
2021/04/23 05:22:43;;;;;;;25.45;9.07;;;;;;;;;;5014244;28;20496;-94
2021/04/23 05:25:13;;;;;;;32.90;10.52;;;;;;;;;;5030495;28;20046;-94
2021/04/23 05:27:39;;;;;;;14.75;8.07;;;;;;;;;;4997499;28;20128;-93
2021/04/23 05:30:08;;;;;;;15.73;8.90;;;;;;;;;;5014163;28;20030;-94
2021/04/23 05:32:34;;;;;;;17.42;8.38;;;;;;;;;;4997636;28;20068;-94
2021/04/23 05:35:00;;;;;;;29.55;9.13;;;;;;;;;;5030610;28;20077;-94
2021/04/23 05:37:25;;;;;;;21.88;8.23;;;;;;;;;;4997589;28;20082;-94
2021/04/23 05:39:51;;;;;;;25.75;8.20;;;;;;;;;;5033334;28;20044;-94
2021/04/23 05:42:16;;;;;;;17.42;7.55;;;;;;;;;;5033555;28;20037;-94
2021/04/23 05:44:44;;;;;;;21.85;8.80;;;;;;;;;;5017039;28;20038;-93
2021/04/23 05:47:10;;;;;;;18.40;8.00;;;;;;;;;;5016736;28;20037;-93
2021/04/23 05:49:35;;;;;;;18.58;8.05;;;;;;;;;;5033213;28;20034;-93
2021/04/23 05:52:03;;;;;;;23.48;8.48;;;;;;;;;;5016742;28;20033;-94
2021/04/23 05:54:28;;;;;;;26.55;9.48;;;;;;;;;;5016784;28;20033;-94
2021/04/23 05:56:54;;;;;;;16.73;9.13;;;;;;;;;;5016718;28;20136;-93
2021/04/23 05:59:20;;;;;;;19.55;9.40;;;;;;;;;;5032965;28;20144;-94
2021/04/23 06:01:45;;;;;;;22.33;9.57;;;;;;;;;;5032637;28;20025;-94
2021/04/23 06:04:11;;;;;;;14.48;8.23;;;;;;;;;;5016672;28;20037;-94
2021/04/23 06:06:36;;;;;;;20.67;8.38;;;;;;;;;;5016897;28;20038;-93
2021/04/23 06:09:03;;;;;;;18.80;8.45;;;;;;;;;;5032624;28;20040;-93
2021/04/23 06:11:28;;;;;;;23.13;8.38;;;;;;;;;;5016586;28;20025;-94
2021/04/23 06:13:54;;;;;;;12.65;7.05;;;;;;;;;;5015166;28;20041;-94
2021/04/23 06:16:20;;;;;;;15.85;7.80;;;;;;;;;;5032989;28;20033;-94
2021/04/23 06:18:45;;;;;;;16.88;7.78;;;;;;;;;;5033068;28;20041;-93
2021/04/23 06:21:11;;;;;;;13.13;7.25;;;;;;;;;;5016635;28;20370;-93
2021/04/23 06:23:37;;;;;;;13.65;7.15;;;;;;;;;;5016193;28;20565;-94
2021/04/23 06:26:03;;;;;;;19.08;7.55;;;;;;;;;;5016482;28;20389;-94
2021/04/23 06:28:29;;;;;;;14.60;7.47;;;;;;;;;;5016445;28;20484;-94
2021/04/23 06:30:56;;;;;;;14.18;7.95;;;;;;;;;;5015943;28;20048;-93
2021/04/23 06:33:24;;;;;;;17.02;8.43;;;;;;;;;;5032790;28;20044;-94
2021/04/23 06:35:49;;;;;;;17.63;6.90;;;;;;;;;;5016481;28;20037;-93
2021/04/23 06:38:15;;;;;;;16.77;7.15;;;;;;;;;;5016068;28;20041;-93
2021/04/23 06:40:41;;;;;;;16.02;6.95;;;;;;;;;;5032753;28;20072;-95
2021/04/23 06:43:07;;;;;;;17.33;7.35;;;;;;;;;;5016051;28;20034;-93
2021/04/23 06:45:33;;;;;;;16.00;7.93;;;;;;;;;;5016320;28;20037;-94
2021/04/23 06:47:59;;;;;;;14.52;7.40;;;;;;;;;;5016095;28;20369;-94
2021/04/23 06:50:25;;;;;;;16.52;7.55;;;;;;;;;;5015963;28;20051;-93
2021/04/23 06:52:53;;;;;;;15.70;7.32;;;;;;;;;;5032489;28;20036;-93
2021/04/23 06:55:19;;;;;;;19.33;7.53;;;;;;;;;;5016427;28;20033;-94
2021/04/23 06:57:44;;;;;;;13.73;7.82;;;;;;;;;;5016190;28;20045;-92
2021/04/23 07:00:14;;;;;;;14.95;6.90;;;;;;;;;;5032678;28;20060;-94
2021/04/23 07:02:40;;;;;;;17.63;6.95;;;;;;;;;;5032494;28;20060;-94
2021/04/23 07:05:06;;;;;;;13.40;7.47;;;;;;;;;;5032667;28;20068;-93
2021/04/23 07:07:32;;;;;;;16.95;7.15;;;;;;;;;;5032504;28;20025;-93
2021/04/23 07:09:57;;;;;;;18.17;7.68;;;;;;;;;;5031521;28;20029;-92
2021/04/23 07:12:22;;;;;;;15.60;7.78;;;;;;;;;;5032381;28;20038;-94
2021/04/23 07:14:48;;;;;;;11.40;5.95;;;;;;;;;;5032471;28;20025;-94
2021/04/23 07:17:13;;;;;;;14.18;6.68;;;;;;;;;;5032789;28;20464;-93
2021/04/23 07:19:39;;;;;;;14.30;7.15;;;;;;;;;;5032541;28;20466;-93
2021/04/23 07:22:05;;;;;;;13.23;7.28;;;;;;;;;;5015768;28;20056;-93
2021/04/23 07:24:32;;;;;;;17.48;8.48;;;;;;;;;;5015439;28;20053;-94
2021/04/23 07:26:57;;;;;;;24.65;10.38;;;;;;;;;;5034565;28;20041;-94
2021/04/23 07:29:22;;;;;;;19.48;7.85;;;;;;;;;;5019432;28;20048;-94
2021/04/23 07:31:47;;;;;;;15.85;6.85;;;;;;;;;;5036211;28;20029;-94
2021/04/23 07:34:13;;;;;;;14.40;6.72;;;;;;;;;;5035890;28;20041;-94
2021/04/23 07:36:38;;;;;;;10.98;5.53;;;;;;;;;;5035998;28;20034;-94
2021/04/23 07:39:04;;;;;;;12.73;6.10;;;;;;;;;;5014770;28;20401;-93
2021/04/23 07:41:30;;;;;;;12.32;5.57;;;;;;;;;;5032741;28;20125;-93
2021/04/23 07:43:55;;;;;;;15.05;5.18;;;;;;;;;;5035496;28;20045;-93
2021/04/23 07:46:20;;;;;;;13.38;5.68;;;;;;;;;;5035752;28;20044;-93
2021/04/23 07:48:46;;;;;;;17.05;5.63;;;;;;;;;;5035416;28;20124;-93
2021/04/23 07:51:11;;;;;;;8.93;4.35;;;;;;;;;;5035651;28;20044;-93
2021/04/23 07:53:36;;;;;;;13.48;5.47;;;;;;;;;;5018992;28;20061;-93
2021/04/23 07:56:02;;;;;;;9.63;4.22;;;;;;;;;;5035147;28;20048;-93
2021/04/23 07:58:27;;;;;;;13.73;4.43;;;;;;;;;;5035324;28;20141;-93
2021/04/23 08:00:53;;;;;;;10.13;4.05;;;;;;;;;;5035168;28;20156;-93
2021/04/23 08:03:18;;;;;;;14.10;3.58;;;;;;;;;;5018719;28;20037;-93
2021/04/23 08:05:44;;;;;;;12.60;3.80;;;;;;;;;;5035064;28;20033;-93
2021/04/23 08:08:10;;;;;;;8.73;3.80;;;;;;;;;;5035276;28;20052;-93
2021/04/23 08:10:36;;;;;;;10.95;4.13;;;;;;;;;;5034928;28;20028;-93
2021/04/23 08:13:03;;;;;;;12.65;4.05;;;;;;;;;;5035051;28;20128;-93
2021/04/23 08:15:29;;;;;;;8.68;3.80;;;;;;;;;;5034943;28;20029;-93
2021/04/23 08:17:56;;;;;;;8.35;4.22;;;;;;;;;;5018414;28;20477;-93
2021/04/23 08:20:22;;;;;;;11.32;4.00;;;;;;;;;;5034999;28;20061;-93
2021/04/23 08:22:47;;;;;;;11.10;4.10;;;;;;;;;;5018413;28;20040;-93
2021/04/23 08:25:14;;;;;;;14.65;3.53;;;;;;;;;;5034332;28;20041;-92
2021/04/23 08:27:40;;;;;;;7.97;4.15;;;;;;;;;;5018213;28;20045;-93
2021/04/23 08:30:07;;;;;;;18.35;3.88;;;;;;;;;;5034758;28;20411;-93
2021/04/23 08:32:33;;;;;;;13.93;4.93;;;;;;;;;;5034729;28;20396;-93
2021/04/23 08:34:58;;;;;;;11.32;4.05;;;;;;;;;;5018198;28;20034;-93
2021/04/23 08:37:23;;;;;;;6.68;3.47;;;;;;;;;;5034231;28;20064;-93
2021/04/23 08:39:49;;;;;;;10.25;3.83;;;;;;;;;;5017916;28;20583;-93
2021/04/23 08:42:14;;;;;;;10.07;3.83;;;;;;;;;;5034487;28;20243;-93
2021/04/23 08:44:39;;;;;;;10.93;3.72;;;;;;;;;;5007137;28;20038;-94
2021/04/23 08:47:05;;;;;;;15.40;5.07;;;;;;;;;;5014499;28;20041;-93
2021/04/23 08:49:33;;;;;;;15.70;3.70;;;;;;;;;;4998146;28;20069;-91
2021/04/23 08:52:00;;;;;;;9.07;3.67;;;;;;;;;;4998205;28;20030;-91
2021/04/23 08:54:25;;;;;;;14.10;5.53;;;;;;;;;;4998106;28;20180;-93
2021/04/23 08:56:51;;;;;;;10.52;4.05;;;;;;;;;;4998117;28;20073;-93
2021/04/23 08:59:17;;;;;;;8.90;3.92;;;;;;;;;;4998113;28;20503;-93
2021/04/23 09:01:43;;;;;;;9.68;4.10;;;;;;;;;;5014359;28;20038;-93
2021/04/23 09:04:08;;;;;;;10.80;4.85;;;;;;;;;;4998034;28;20038;-93
2021/04/23 09:06:33;;;;;;;9.38;3.90;;;;;;;;;;5014248;28;20112;-93
2021/04/23 09:09:08;;;;;;;10.20;3.78;;;;;;;;;;4997831;28;20045;-93
2021/04/23 09:11:40;;;;;;;14.55;4.43;;;;;;;;;;5018067;28;20047;-91
2021/04/23 09:14:09;;;;;;;11.20;3.88;;;;;;;;;;5034157;28;20099;-92
2021/04/23 09:16:48;;;;;;;8.15;3.75;;;;;;;;;;5033888;28;20038;-92
2021/04/23 09:19:15;;;;;;;9.73;3.75;;;;;;;;;;5034737;28;20095;-91
2021/04/23 09:21:52;;;;;;;8.50;3.60;;;;;;;;;;5033698;28;20075;-91
2021/04/23 09:24:22;;;;;;;11.45;3.53;;;;;;;;;;5017087;28;20374;-91
2021/04/23 09:26:49;;;;;;;11.13;3.50;;;;;;;;;;5033501;28;20049;-91
2021/04/23 09:29:22;;;;;;;10.00;4.25;;;;;;;;;;5016970;28;20103;-92
2021/04/23 09:31:47;;;;;;;8.82;3.30;;;;;;;;;;5033614;28;20128;-91
2021/04/23 09:34:15;;;;;;;7.78;3.25;;;;;;;;;;5033687;28;20120;-91
2021/04/23 09:36:46;;;;;;;8.82;3.47;;;;;;;;;;5033592;28;20063;-92
2021/04/23 09:39:23;;;;;;;7.50;3.17;;;;;;;;;;5029350;28;20069;-91
2021/04/23 09:42:02;;;;;;;9.25;3.35;;;;;;;;;;5030197;28;20469;-91
2021/04/23 09:44:32;;;;;;;7.72;3.00;;;;;;;;;;4997486;28;20045;-92
2021/04/23 09:47:00;;;;;;;9.15;3.70;;;;;;;;;;5013704;28;20125;-92
2021/04/23 09:49:26;;;;;;;8.38;3.28;;;;;;;;;;5012881;28;20033;-92
2021/04/23 09:51:51;;;;;;;7.32;3.42;;;;;;;;;;4997124;28;20033;-93
2021/04/23 09:54:22;;;;;;;12.82;4.30;;;;;;;;;;5013658;28;20034;-91
2021/04/23 09:56:48;;;;;;;7.70;3.28;;;;;;;;;;5013085;28;20065;-93
2021/04/23 09:59:21;;;;;;;10.82;3.42;;;;;;;;;;5029716;28;20038;-92
2021/04/23 10:01:55;;;;;;;8.25;3.20;;;;;;;;;;5013488;28;20137;-93
2021/04/23 10:04:30;;;;;;;9.98;3.20;;;;;;;;;;4997180;28;20477;-92
2021/04/23 10:07:07;;;;;;;7.38;3.85;;;;;;;;;;5013608;28;20428;-92
2021/04/23 10:09:46;;;;;;;7.38;3.70;;;;;;;;;;4996997;28;20464;-93
2021/04/23 10:12:12;;;;;;;7.10;3.08;;;;;;;;;;4996813;28;20030;-92
2021/04/23 10:14:37;;;;;;;8.98;3.40;;;;;;;;;;4997184;28;20076;-92
2021/04/23 10:17:03;;;;;;;8.55;3.30;;;;;;;;;;5013182;28;20045;-92
2021/04/23 10:19:28;;;;;;;6.82;3.00;;;;;;;;;;5029529;28;20045;-93
2021/04/23 10:21:54;;;;;;;9.60;3.50;;;;;;;;;;5012915;28;20523;-92
2021/04/23 10:24:21;;;;;;;11.20;3.60;;;;;;;;;;5029319;28;20143;-92
2021/04/23 10:26:47;;;;;;;11.18;4.22;;;;;;;;;;5029478;28;20042;-93
2021/04/23 10:29:14;;;;;;;9.10;3.63;;;;;;;;;;4995873;28;20041;-92
2021/04/23 10:31:40;;;;;;;8.88;3.55;;;;;;;;;;5012830;28;20038;-91
2021/04/23 10:34:08;;;;;;;11.52;3.45;;;;;;;;;;5012716;28;20160;-91
2021/04/23 10:36:35;;;;;;;9.30;3.97;;;;;;;;;;5012504;28;20041;-92
2021/04/23 10:39:00;;;;;;;9.40;3.60;;;;;;;;;;5015165;28;20041;-92
2021/04/23 10:41:33;;;;;;;9.77;4.22;;;;;;;;;;5032437;28;20140;-90
2021/04/23 10:44:00;;;;;;;6.82;3.45;;;;;;;;;;5012526;28;20030;-92
2021/04/23 10:46:26;;;;;;;9.27;4.10;;;;;;;;;;5012653;28;20033;-92
2021/04/23 10:49:02;;;;;;;8.95;3.50;;;;;;;;;;5012755;28;20037;-92
2021/04/23 10:51:28;;;;;;;8.50;3.70;;;;;;;;;;5013047;28;20038;-93
2021/04/23 10:54:07;;;;;;;9.05;4.10;;;;;;;;;;5012900;28;20036;-92
2021/04/23 10:56:37;;;;;;;8.40;3.80;;;;;;;;;;5012779;28;20540;-93
2021/04/23 10:59:26;;;;;;;8.23;3.60;;;;;;;;;;5012053;28;20037;-92
2021/04/23 11:01:52;;;;;;;10.15;3.97;;;;;;;;;;5016478;28;20505;-92
2021/04/23 11:04:19;;;;;;;12.77;5.00;;;;;;;;;;4999845;28;20077;-92
2021/04/23 11:07:10;;;;;;;8.80;4.10;;;;;;;;;;4999713;28;20065;-91
2021/04/23 11:09:56;;;;;;;9.25;4.25;;;;;;;;;;5016182;28;20519;-92
2021/04/23 11:12:21;;;;;;;7.60;4.47;;;;;;;;;;5029576;28;20033;-92
2021/04/23 11:14:47;;;;;;;16.05;4.95;;;;;;;;;;5032741;28;20511;-92
2021/04/23 11:17:16;;;;;;;10.88;4.90;;;;;;;;;;5016421;28;20046;-92
2021/04/23 11:19:42;;;;;;;14.48;5.53;;;;;;;;;;5032537;28;20049;-92
2021/04/23 11:22:12;;;;;;;9.18;4.35;;;;;;;;;;5015936;28;20041;-92
2021/04/23 11:24:38;;;;;;;9.75;3.65;;;;;;;;;;5015851;28;20038;-92
2021/04/23 11:27:07;;;;;;;6.88;3.60;;;;;;;;;;5032302;28;20516;-92
2021/04/23 11:29:48;;;;;;;8.68;3.65;;;;;;;;;;5032299;28;20061;-92
2021/04/23 11:32:22;;;;;;;8.52;4.45;;;;;;;;;;5032460;28;20030;-91
2021/04/23 11:34:53;;;;;;;10.55;4.50;;;;;;;;;;4999004;28;20040;-92
2021/04/23 11:37:21;;;;;;;13.77;4.60;;;;;;;;;;5015679;28;20037;-92
2021/04/23 11:39:54;;;;;;;9.40;3.90;;;;;;;;;;5032066;28;20041;-92
2021/04/23 11:42:28;;;;;;;7.88;3.63;;;;;;;;;;5027861;28;20053;-93
2021/04/23 11:45:03;;;;;;;9.48;3.90;;;;;;;;;;5032177;28;20045;-93
2021/04/23 11:47:33;;;;;;;9.98;3.90;;;;;;;;;;5015821;28;20033;-92
2021/04/23 11:50:16;;;;;;;13.90;4.25;;;;;;;;;;5015820;28;20045;-93
2021/04/23 11:52:50;;;;;;;13.23;4.82;;;;;;;;;;5032535;28;20045;-93
2021/04/23 11:55:21;;;;;;;9.55;4.82;;;;;;;;;;5015776;28;20108;-93
2021/04/23 11:57:53;;;;;;;8.50;4.63;;;;;;;;;;5015014;28;20592;-92
2021/04/23 12:00:23;;;;;;;9.82;4.57;;;;;;;;;;5032078;28;20034;-93
2021/04/23 12:03:06;;;;;;;9.98;3.78;;;;;;;;;;5031921;28;20432;-93
2021/04/23 12:05:37;;;;;;;9.32;3.80;;;;;;;;;;5032466;28;20062;-92
2021/04/23 12:08:05;;;;;;;7.95;3.75;;;;;;;;;;5015362;28;20051;-93
2021/04/23 12:10:33;;;;;;;8.07;3.78;;;;;;;;;;5015283;28;20065;-92
2021/04/23 12:12:58;;;;;;;9.88;4.25;;;;;;;;;;4998059;28;20038;-92
2021/04/23 12:15:28;;;;;;;13.23;4.68;;;;;;;;;;4999146;28;20040;-93
2021/04/23 12:17:55;;;;;;;10.63;4.30;;;;;;;;;;4998752;28;20049;-94
2021/04/23 12:20:23;;;;;;;14.18;4.63;;;;;;;;;;4999229;28;20404;-94
2021/04/23 12:22:49;;;;;;;8.45;4.20;;;;;;;;;;5015443;28;20065;-94
2021/04/23 12:25:27;;;;;;;9.32;3.75;;;;;;;;;;5018749;28;20045;-93
2021/04/23 12:27:53;;;;;;;10.20;3.72;;;;;;;;;;5035076;28;20074;-94
2021/04/23 12:30:30;;;;;;;9.70;4.10;;;;;;;;;;5034916;28;20036;-94
2021/04/23 12:32:56;;;;;;;7.85;3.95;;;;;;;;;;5035039;28;20037;-93
2021/04/23 12:35:33;;;;;;;6.70;3.38;;;;;;;;;;5035084;28;20112;-94
2021/04/23 12:37:59;;;;;;;11.48;4.22;;;;;;;;;;5034580;28;20133;-94
2021/04/23 12:40:33;;;;;;;6.57;3.65;;;;;;;;;;5018287;28;20069;-94
2021/04/23 12:42:58;;;;;;;10.63;3.90;;;;;;;;;;5031019;28;20041;-94
2021/04/23 12:45:24;;;;;;;10.80;3.90;;;;;;;;;;5015089;28;20030;-94
2021/04/23 12:47:50;;;;;;;8.48;4.53;;;;;;;;;;4998596;28;20046;-93
2021/04/23 12:50:27;;;;;;;8.27;3.83;;;;;;;;;;5031387;28;20042;-93
2021/04/23 12:52:54;;;;;;;9.80;3.70;;;;;;;;;;5014969;28;20042;-94
2021/04/23 12:55:20;;;;;;;8.00;3.75;;;;;;;;;;5015061;28;20033;-95
2021/04/23 12:57:46;;;;;;;10.30;4.13;;;;;;;;;;5014261;28;20037;-94
2021/04/23 13:00:18;;;;;;;8.48;4.13;;;;;;;;;;5014597;28;20404;-95
2021/04/23 13:02:44;;;;;;;6.05;3.53;;;;;;;;;;5014734;28;20038;-95
2021/04/23 13:05:15;;;;;;;7.07;3.40;;;;;;;;;;5014978;28;20124;-95
2021/04/23 13:07:53;;;;;;;7.57;3.97;;;;;;;;;;5014581;28;20037;-94
2021/04/23 13:10:40;;;;;;;12.18;4.00;;;;;;;;;;5014835;28;20045;-95
2021/04/23 13:13:09;;;;;;;7.40;4.00;;;;;;;;;;5014114;28;20084;-95
2021/04/23 13:15:46;;;;;;;12.60;4.20;;;;;;;;;;5014422;28;20392;-94
2021/04/23 13:18:24;;;;;;;8.85;3.97;;;;;;;;;;5009803;28;20129;-95
2021/04/23 13:20:55;;;;;;;10.43;4.53;;;;;;;;;;5010690;28;20115;-95
2021/04/23 13:23:30;;;;;;;6.25;3.40;;;;;;;;;;4997745;28;20030;-94
2021/04/23 13:25:55;;;;;;;7.65;3.67;;;;;;;;;;4997770;28;20058;-94
2021/04/23 13:28:21;;;;;;;8.05;3.55;;;;;;;;;;5030721;28;20033;-94
2021/04/23 13:30:51;;;;;;;9.95;4.35;;;;;;;;;;5030566;28;20034;-94
2021/04/23 13:33:34;;;;;;;8.48;4.53;;;;;;;;;;5030395;28;20033;-94
2021/04/23 13:36:10;;;;;;;8.27;4.15;;;;;;;;;;5030329;28;20066;-94
2021/04/23 13:38:57;;;;;;;7.90;3.88;;;;;;;;;;5030244;28;20045;-95
2021/04/23 13:41:37;;;;;;;7.70;4.00;;;;;;;;;;5013819;28;20054;-96
2021/04/23 13:44:07;;;;;;;7.55;3.72;;;;;;;;;;5029787;28;20068;-94
2021/04/23 13:46:41;;;;;;;10.88;3.80;;;;;;;;;;4997262;28;20141;-95
2021/04/23 13:49:10;;;;;;;8.15;3.80;;;;;;;;;;4997568;28;20065;-93
2021/04/23 13:51:39;;;;;;;10.00;4.22;;;;;;;;;;4997399;28;20496;-94
2021/04/23 13:54:22;;;;;;;8.18;3.95;;;;;;;;;;5004374;28;20129;-95
2021/04/23 13:56:50;;;;;;;6.97;3.22;;;;;;;;;;5013516;28;20040;-94
2021/04/23 13:59:29;;;;;;;7.63;3.55;;;;;;;;;;5029343;28;20038;-91
2021/04/23 14:02:00;;;;;;;13.45;3.70;;;;;;;;;;5029391;28;20400;-91
2021/04/23 14:04:33;;;;;;;10.60;3.85;;;;;;;;;;5012794;28;20022;-91
2021/04/23 14:07:00;;;;;;;7.90;3.40;;;;;;;;;;5012412;28;20499;-92
2021/04/23 14:09:27;;;;;;;8.63;3.60;;;;;;;;;;4996580;28;20072;-93
2021/04/23 14:11:55;;;;;;;10.65;4.18;;;;;;;;;;4996376;28;20042;-91
2021/04/23 14:14:22;;;;;;;10.27;4.30;;;;;;;;;;5029083;28;20038;-93
2021/04/23 14:16:53;;;;;;;7.10;3.63;;;;;;;;;;5014986;28;20052;-91
2021/04/23 14:19:19;;;;;;;11.93;4.63;;;;;;;;;;5031963;28;20045;-92
2021/04/23 14:22:00;;;;;;;7.35;3.83;;;;;;;;;;5015107;28;20038;-92
2021/04/23 14:24:31;;;;;;;9.82;3.63;;;;;;;;;;5031924;28;20041;-92
2021/04/23 14:26:57;;;;;;;9.25;3.58;;;;;;;;;;5032226;28;20404;-91
2021/04/23 14:29:22;;;;;;;14.00;4.80;;;;;;;;;;5032402;28;20037;-93
2021/04/23 14:31:49;;;;;;;6.13;3.50;;;;;;;;;;5032186;28;20024;-92
2021/04/23 14:34:14;;;;;;;9.88;4.07;;;;;;;;;;5032078;28;20038;-94
2021/04/23 14:36:41;;;;;;;8.90;3.97;;;;;;;;;;5031891;28;20068;-92
2021/04/23 14:39:07;;;;;;;10.77;4.78;;;;;;;;;;5015827;28;20500;-92
2021/04/23 14:41:34;;;;;;;8.40;3.85;;;;;;;;;;5016025;28;20049;-92